createdAt,value
2023-04-10T00:01:46.328Z,22.25
2023-04-10T00:04:12.882Z,22.85
2023-04-10T00:06:40.937Z,23.40
2023-04-10T00:09:08.138Z,22.42
2023-04-10T00:11:34.562Z,22.48
2023-04-10T00:14:01.114Z,23.90
2023-04-10T00:16:27.588Z,23.95
2023-04-10T00:18:54.041Z,24.40
2023-04-10T00:21:20.750Z,23.27
2023-04-10T00:23:47.149Z,23.30
2023-04-10T00:26:13.551Z,22.15
2023-04-10T00:28:41.540Z,23.20
2023-04-10T00:31:07.941Z,21.75
2023-04-10T00:33:34.340Z,21.95
2023-04-10T00:36:01.191Z,20.88
2023-04-10T00:38:28.714Z,22.60
2023-04-10T00:40:55.277Z,21.88
2023-04-10T00:43:22.050Z,22.73
2023-04-10T00:45:49.972Z,21.17
2023-04-10T00:48:17.793Z,22.25
2023-04-10T00:50:46.223Z,22.15
2023-04-10T00:53:12.615Z,22.25
2023-04-10T00:55:39.293Z,23.58
2023-04-10T00:58:05.774Z,23.88
2023-04-10T01:00:32.210Z,25.60
2023-04-10T01:03:01.321Z,25.60
2023-04-10T01:05:35.257Z,25.92
2023-04-10T01:08:36.518Z,24.90
2023-04-10T01:11:13.469Z,24.73
2023-04-10T01:13:49.898Z,22.33
2023-04-10T01:16:23.231Z,24.05
2023-04-10T01:19:18.813Z,25.63
2023-04-10T01:21:45.858Z,26.05
2023-04-10T01:24:31.506Z,25.42
2023-04-10T01:27:56.612Z,26.95
2023-04-10T01:30:23.228Z,27.55
2023-04-10T01:32:53.694Z,26.75
2023-04-10T01:35:21.368Z,25.95
2023-04-10T01:37:50.595Z,25.67
2023-04-10T01:40:20.984Z,23.48
2023-04-10T01:42:56.715Z,22.85
2023-04-10T01:45:29.891Z,21.75
2023-04-10T01:47:56.642Z,21.20
2023-04-10T01:50:24.472Z,20.65
2023-04-10T01:52:54.646Z,21.52
2023-04-10T01:55:27.511Z,19.15
2023-04-10T01:58:05.872Z,18.60
2023-04-10T02:00:42.980Z,20.23
2023-04-10T02:03:11.298Z,16.10
2023-04-10T02:06:02.413Z,15.95
2023-04-10T02:08:37.548Z,16.10
2023-04-10T02:11:17.579Z,14.43
2023-04-10T02:13:44.211Z,15.38
2023-04-10T02:16:14.340Z,16.33
2023-04-10T02:18:41.188Z,17.33
2023-04-10T02:21:08.257Z,22.38
2023-04-10T02:23:35.927Z,23.58
2023-04-10T02:26:09.188Z,23.23
2023-04-10T02:28:39.302Z,21.92
2023-04-10T02:31:07.508Z,21.52
2023-04-10T02:33:33.945Z,21.52
2023-04-10T02:36:01.341Z,21.73
2023-04-10T02:38:28.619Z,22.30
2023-04-10T02:40:55.326Z,23.33
2023-04-10T02:43:21.824Z,22.38
2023-04-10T02:45:48.242Z,20.70
2023-04-10T02:48:20.895Z,21.98
2023-04-10T02:50:57.681Z,23.67
2023-04-10T02:53:25.959Z,25.20
2023-04-10T02:55:56.280Z,24.90
2023-04-10T02:58:22.741Z,24.92
2023-04-10T03:00:52.157Z,27.73
2023-04-10T03:03:25.575Z,23.48
2023-04-10T03:05:54.903Z,27.63
2023-04-10T03:08:31.071Z,29.52
2023-04-10T03:10:57.460Z,28.38
2023-04-10T03:13:23.886Z,25.15
2023-04-10T03:15:50.378Z,27.00
2023-04-10T03:18:16.970Z,28.50
2023-04-10T03:20:45.417Z,29.48
2023-04-10T03:23:11.977Z,30.85
2023-04-10T03:25:38.533Z,29.25
2023-04-10T03:28:06.940Z,36.70
2023-04-10T03:30:35.272Z,41.63
2023-04-10T03:33:02.572Z,42.08
2023-04-10T03:35:29.444Z,42.28
2023-04-10T03:37:55.843Z,45.92
2023-04-10T03:40:22.524Z,42.95
2023-04-10T03:42:48.978Z,42.90
2023-04-10T03:45:15.566Z,42.53
2023-04-10T03:47:42.018Z,42.92
2023-04-10T03:50:10.547Z,44.28
2023-04-10T03:52:45.363Z,42.53
2023-04-10T03:55:19.061Z,41.08
2023-04-10T03:57:47.182Z,40.47
2023-04-10T04:00:15.675Z,38.13
2023-04-10T04:02:50.863Z,39.88
2023-04-10T04:05:36.423Z,40.65
2023-04-10T04:08:23.771Z,38.78
2023-04-10T04:11:08.719Z,41.40
2023-04-10T04:13:44.003Z,44.85
2023-04-10T04:16:24.041Z,43.78
2023-04-10T04:18:56.419Z,42.97
2023-04-10T04:21:31.451Z,43.55
2023-04-10T04:24:08.991Z,42.15
2023-04-10T04:26:53.862Z,42.65
2023-04-10T04:29:34.672Z,41.60
2023-04-10T04:32:30.544Z,41.50
2023-04-10T04:35:14.248Z,42.97
2023-04-10T04:38:06.549Z,41.92
2023-04-10T04:40:50.736Z,41.13
2023-04-10T04:43:41.141Z,41.03
2023-04-10T04:46:23.583Z,39.38
2023-04-10T04:48:58.859Z,41.63
2023-04-10T04:51:33.158Z,40.85
2023-04-10T04:54:05.057Z,40.83
2023-04-10T04:56:40.579Z,39.55
2023-04-10T04:59:16.098Z,38.95
2023-04-10T05:01:55.886Z,40.80
2023-04-10T05:04:57.955Z,39.28
2023-04-10T05:07:44.832Z,39.80
2023-04-10T05:10:38.949Z,45.13
2023-04-10T05:13:30.488Z,50.40
2023-04-10T05:16:15.698Z,49.67
2023-04-10T05:18:56.109Z,49.83
2023-04-10T05:21:51.629Z,51.63
2023-04-10T05:24:41.020Z,54.17
2023-04-10T05:27:13.705Z,54.70
2023-04-10T05:29:58.639Z,51.22
2023-04-10T05:32:37.004Z,49.60
2023-04-10T05:35:24.935Z,48.08
2023-04-10T05:38:11.689Z,50.38
2023-04-10T05:40:45.786Z,52.22
2023-04-10T05:43:32.225Z,52.15
2023-04-10T05:46:13.372Z,55.67
2023-04-10T05:48:56.634Z,54.30
2023-04-10T05:51:37.005Z,55.55
2023-04-10T05:54:18.019Z,52.83
2023-04-10T05:56:53.578Z,53.90
2023-04-10T05:59:38.784Z,52.03
2023-04-10T06:02:21.799Z,50.00
2023-04-10T06:04:48.960Z,49.08
2023-04-10T06:07:16.201Z,46.05
2023-04-10T06:09:42.627Z,47.55
2023-04-10T06:12:09.977Z,45.58
2023-04-10T06:14:38.545Z,44.47
2023-04-10T06:17:05.699Z,45.05
2023-04-10T06:19:32.275Z,47.92
2023-04-10T06:21:58.672Z,48.75
2023-04-10T06:24:25.337Z,48.60
2023-04-10T06:26:51.827Z,47.92
2023-04-10T06:29:18.254Z,44.85
2023-04-10T06:31:44.773Z,43.28
2023-04-10T06:34:11.881Z,43.58
2023-04-10T06:36:46.954Z,42.22
2023-04-10T06:39:13.653Z,45.30
2023-04-10T06:41:40.062Z,46.50
2023-04-10T06:44:16.046Z,45.00
2023-04-10T06:46:42.491Z,46.53
2023-04-10T06:49:08.926Z,44.30
2023-04-10T06:51:35.316Z,45.55
2023-04-10T06:54:01.720Z,45.17
2023-04-10T06:56:28.584Z,41.40
2023-04-10T06:58:55.189Z,42.45
2023-04-10T07:01:21.917Z,42.90
2023-04-10T07:03:48.447Z,43.28
2023-04-10T07:06:14.873Z,43.08
2023-04-10T07:08:41.280Z,43.28
2023-04-10T07:11:07.725Z,42.05
2023-04-10T07:13:35.608Z,42.42
2023-04-10T07:16:02.145Z,41.47
2023-04-10T07:18:28.610Z,39.13
2023-04-10T07:20:55.033Z,41.35
2023-04-10T07:23:22.525Z,39.70
2023-04-10T07:25:48.961Z,40.17
2023-04-10T07:28:15.375Z,39.78
2023-04-10T07:30:42.046Z,40.60
2023-04-10T07:33:08.635Z,38.88
2023-04-10T07:35:35.242Z,39.17
2023-04-10T07:38:01.782Z,40.10
2023-04-10T07:40:28.278Z,38.60
2023-04-10T07:42:54.691Z,37.90
2023-04-10T07:45:21.145Z,38.65
2023-04-10T07:47:47.690Z,38.42
2023-04-10T07:50:14.153Z,37.47
2023-04-10T07:52:40.556Z,37.90
2023-04-10T07:55:07.040Z,37.15
2023-04-10T07:57:33.455Z,36.63
2023-04-10T07:59:59.858Z,37.40
2023-04-10T08:02:26.512Z,35.97
2023-04-10T08:04:53.154Z,36.03
2023-04-10T08:07:21.618Z,34.63
2023-04-10T08:09:48.141Z,35.63
2023-04-10T08:12:14.523Z,36.95
2023-04-10T08:14:40.906Z,34.58
2023-04-10T08:17:14.312Z,33.08
2023-04-10T08:19:42.053Z,33.03
2023-04-10T08:22:08.661Z,32.70
2023-04-10T08:24:35.137Z,34.25
2023-04-10T08:27:01.654Z,32.60
2023-04-10T08:29:28.050Z,33.30
2023-04-10T08:31:55.584Z,30.98
2023-04-10T08:34:24.294Z,32.05
2023-04-10T08:36:50.690Z,31.52
2023-04-10T08:39:17.089Z,31.25
2023-04-10T08:41:43.769Z,30.13
2023-04-10T08:44:10.654Z,28.75
2023-04-10T08:46:43.253Z,29.85
2023-04-10T08:49:15.431Z,29.67
2023-04-10T08:51:47.948Z,27.95
2023-04-10T08:54:27.496Z,29.35
2023-04-10T08:56:55.952Z,28.80
2023-04-10T08:59:22.747Z,31.00
2023-04-10T09:01:49.307Z,29.65
2023-04-10T09:04:17.856Z,26.02
2023-04-10T09:06:44.421Z,28.00
2023-04-10T09:09:10.973Z,26.50
2023-04-10T09:11:56.002Z,24.85
2023-04-10T09:14:32.563Z,22.33
2023-04-10T09:17:12.938Z,23.17
2023-04-10T09:19:39.494Z,23.70
2023-04-10T09:22:06.056Z,21.08
2023-04-10T09:24:37.413Z,23.35
2023-04-10T09:27:04.349Z,23.27
2023-04-10T09:29:43.193Z,23.30
2023-04-10T09:32:10.132Z,22.63
2023-04-10T09:34:52.358Z,22.00
2023-04-10T09:37:20.756Z,21.75
2023-04-10T09:39:47.163Z,24.38
2023-04-10T09:42:14.791Z,22.77
2023-04-10T09:44:42.221Z,20.60
2023-04-10T09:47:14.745Z,19.90
2023-04-10T09:49:52.524Z,19.73
2023-04-10T09:52:20.450Z,19.90
2023-04-10T09:54:46.915Z,20.58
2023-04-10T09:57:21.427Z,21.02
2023-04-10T09:59:56.612Z,17.48
2023-04-10T10:02:25.756Z,16.95
2023-04-10T10:04:52.945Z,13.73
2023-04-10T10:07:21.145Z,17.08
2023-04-10T10:09:49.156Z,16.02
2023-04-10T10:12:37.946Z,16.00
2023-04-10T10:15:16.423Z,16.45
2023-04-10T10:17:49.383Z,14.55
2023-04-10T10:20:18.239Z,14.65
2023-04-10T10:22:46.408Z,15.80
2023-04-10T10:25:13.152Z,14.90
2023-04-10T10:27:41.554Z,15.00
2023-04-10T10:30:25.408Z,14.15
2023-04-10T10:32:56.076Z,14.27
2023-04-10T10:35:25.157Z,14.88
2023-04-10T10:37:52.938Z,15.60
2023-04-10T10:40:37.625Z,15.05
2023-04-10T10:43:14.808Z,14.57
2023-04-10T10:45:52.364Z,13.55
2023-04-10T10:48:18.857Z,12.82
2023-04-10T10:50:57.854Z,14.68
2023-04-10T10:53:36.388Z,13.93
2023-04-10T10:56:22.487Z,14.40
2023-04-10T10:58:50.777Z,14.30
2023-04-10T11:01:18.208Z,14.25
2023-04-10T11:03:45.482Z,13.73
2023-04-10T11:06:15.386Z,13.00
2023-04-10T11:08:46.567Z,12.63
2023-04-10T11:11:20.056Z,12.55
2023-04-10T11:13:52.403Z,13.02
2023-04-10T11:16:20.384Z,13.50
2023-04-10T11:18:51.208Z,12.38
2023-04-10T11:21:23.447Z,13.00
2023-04-10T11:23:49.788Z,13.85
2023-04-10T11:26:43.723Z,13.10
2023-04-10T11:29:16.124Z,13.13
2023-04-10T11:31:44.545Z,12.75
2023-04-10T11:34:11.805Z,14.55
2023-04-10T11:36:40.718Z,15.00
2023-04-10T11:39:15.956Z,14.85
2023-04-10T11:41:44.269Z,14.80
2023-04-10T11:44:12.873Z,13.48
2023-04-10T11:46:41.307Z,14.77
2023-04-10T11:49:09.799Z,14.25
2023-04-10T11:51:37.741Z,14.15
2023-04-10T11:54:05.450Z,13.15
2023-04-10T11:56:31.847Z,13.02
2023-04-10T11:58:58.296Z,13.52
2023-04-10T12:01:24.954Z,13.77
2023-04-10T12:03:51.693Z,13.05
2023-04-10T12:06:19.598Z,13.40
2023-04-10T12:08:49.287Z,15.43
2023-04-10T12:11:18.728Z,14.52
2023-04-10T12:13:45.220Z,13.00
2023-04-10T12:16:12.426Z,12.43
2023-04-10T12:18:39.662Z,12.45
2023-04-10T12:21:08.538Z,13.10
2023-04-10T12:23:38.337Z,12.43
2023-04-10T12:26:16.558Z,12.63
2023-04-10T12:28:52.503Z,12.18
2023-04-10T12:31:28.093Z,12.20
2023-04-10T12:33:57.855Z,10.80
2023-04-10T12:36:29.439Z,11.65
2023-04-10T12:39:00.366Z,12.55
2023-04-10T12:44:10.989Z,11.93
2023-04-10T12:46:38.532Z,12.63
2023-04-10T12:49:13.143Z,11.30
2023-04-10T12:51:49.278Z,9.80
2023-04-10T12:54:35.349Z,11.70
2023-04-10T12:57:03.843Z,10.95
2023-04-10T12:59:31.258Z,10.63
2023-04-10T13:02:13.538Z,9.75
2023-04-10T13:04:42.613Z,10.70
2023-04-10T13:07:09.095Z,11.30
2023-04-10T13:09:35.491Z,10.35
2023-04-10T13:12:03.860Z,10.98
2023-04-10T13:14:30.481Z,10.40
2023-04-10T13:16:59.937Z,10.63
2023-04-10T13:19:27.048Z,11.25
2023-04-10T13:21:56.339Z,10.23
2023-04-10T13:24:22.734Z,10.40
2023-04-10T13:26:49.155Z,11.50
2023-04-10T13:29:15.670Z,10.02
2023-04-10T13:31:42.129Z,10.77
2023-04-10T13:34:21.168Z,10.20
2023-04-10T13:36:48.557Z,12.05
2023-04-10T13:39:14.960Z,9.73
2023-04-10T13:41:41.364Z,9.55
2023-04-10T13:44:07.754Z,10.25
2023-04-10T13:46:34.218Z,10.23
2023-04-10T13:49:00.782Z,10.52
2023-04-10T13:51:27.849Z,10.13
2023-04-10T13:53:54.310Z,10.15
2023-04-10T13:56:21.068Z,9.57
2023-04-10T13:58:49.143Z,9.85
2023-04-10T14:01:15.653Z,9.93
2023-04-10T14:03:42.270Z,9.75
2023-04-10T14:06:11.736Z,9.75
2023-04-10T14:08:38.196Z,9.60
2023-04-10T14:11:04.663Z,9.13
2023-04-10T14:13:31.076Z,9.35
2023-04-10T14:15:57.532Z,9.73
2023-04-10T14:18:23.978Z,10.13
2023-04-10T14:20:50.375Z,10.25
2023-04-10T14:23:19.608Z,9.25
2023-04-10T14:25:46.768Z,10.32
2023-04-10T14:28:19.454Z,10.13
2023-04-10T14:30:48.277Z,9.82
2023-04-10T14:33:15.181Z,8.60
2023-04-10T14:35:41.699Z,10.98
2023-04-10T14:38:08.166Z,10.25
2023-04-10T14:40:34.654Z,10.93
2023-04-10T14:43:01.089Z,10.00
2023-04-10T14:45:27.818Z,9.90
2023-04-10T14:47:54.489Z,10.35
2023-04-10T14:50:21.034Z,10.45
2023-04-10T14:52:47.461Z,10.70
2023-04-10T14:55:13.861Z,9.40
2023-04-10T14:57:40.422Z,10.27
2023-04-10T15:00:07.413Z,9.65
2023-04-10T15:02:33.939Z,9.52
2023-04-10T15:05:00.413Z,10.48
2023-04-10T15:07:28.309Z,9.63
2023-04-10T15:09:58.530Z,9.70
2023-04-10T15:12:25.244Z,10.63
2023-04-10T15:14:52.058Z,10.32
2023-04-10T15:17:22.277Z,9.55
2023-04-10T15:19:48.987Z,9.52
2023-04-10T15:22:15.851Z,11.45
2023-04-10T15:24:50.009Z,11.20
2023-04-10T15:27:19.107Z,10.45
2023-04-10T15:29:45.516Z,10.65
2023-04-10T15:32:11.918Z,9.57
2023-04-10T15:34:38.361Z,9.85
2023-04-10T15:37:04.774Z,9.43
2023-04-10T15:39:31.170Z,11.07
2023-04-10T15:42:00.048Z,13.57
2023-04-10T15:44:26.770Z,10.07
2023-04-10T15:49:29.727Z,9.88
2023-04-10T15:52:00.730Z,10.25
2023-04-10T15:54:27.132Z,9.93
2023-04-10T15:56:53.529Z,10.25
2023-04-10T15:59:19.977Z,9.73
2023-04-10T16:01:46.473Z,8.85
2023-04-10T16:04:13.075Z,9.18
2023-04-10T16:06:39.607Z,9.13
2023-04-10T16:09:18.361Z,9.38
2023-04-10T16:11:51.000Z,8.50
2023-04-10T16:14:18.915Z,9.13
2023-04-10T16:16:45.667Z,9.05
2023-04-10T16:19:12.102Z,10.00
2023-04-10T16:21:38.508Z,8.65
2023-04-10T16:24:05.214Z,8.88
2023-04-10T16:26:31.617Z,8.75
2023-04-10T16:28:58.050Z,9.38
2023-04-10T16:31:24.711Z,9.77
2023-04-10T16:33:51.163Z,8.73
2023-04-10T16:36:17.568Z,9.40
2023-04-10T16:38:44.538Z,9.57
2023-04-10T16:41:12.354Z,10.30
2023-04-10T16:43:38.987Z,9.23
2023-04-10T16:46:05.812Z,9.48
2023-04-10T16:48:51.941Z,10.27
2023-04-10T16:51:18.571Z,10.07
2023-04-10T16:53:45.075Z,10.07
2023-04-10T16:56:11.521Z,10.35
2023-04-10T16:58:38.167Z,9.32
2023-04-10T17:01:25.192Z,8.80
2023-04-10T17:03:52.034Z,10.45
2023-04-10T17:06:18.468Z,10.15
2023-04-10T17:08:45.552Z,10.63
2023-04-10T17:11:15.878Z,9.20
2023-04-10T17:13:42.366Z,9.93
2023-04-10T17:16:09.539Z,9.52
2023-04-10T17:18:36.055Z,9.48
2023-04-10T17:21:02.474Z,9.70
2023-04-10T17:23:29.447Z,9.13
2023-04-10T17:25:55.848Z,9.10
2023-04-10T17:28:22.308Z,10.00
2023-04-10T17:30:48.723Z,10.35
2023-04-10T17:33:15.326Z,9.75
2023-04-10T17:35:42.067Z,9.73
2023-04-10T17:38:08.549Z,8.98
2023-04-10T17:40:35.117Z,9.15
2023-04-10T17:43:01.599Z,10.07
2023-04-10T17:45:28.040Z,9.38
2023-04-10T17:47:54.542Z,9.60
2023-04-10T17:50:21.047Z,8.68
2023-04-10T17:52:47.447Z,9.25
2023-04-10T17:55:18.335Z,9.07
2023-04-10T17:57:47.033Z,10.13
2023-04-10T18:00:15.570Z,8.13
2023-04-10T18:02:42.975Z,9.50
2023-04-10T18:05:09.619Z,9.63
2023-04-10T18:07:37.425Z,9.05
2023-04-10T18:10:05.120Z,9.45
2023-04-10T18:12:59.277Z,9.52
2023-04-10T18:15:47.401Z,9.88
2023-04-10T18:22:06.904Z,9.23
2023-04-10T18:24:59.501Z,9.88
2023-04-10T18:28:13.959Z,9.32
2023-04-10T18:30:41.362Z,9.75
2023-04-10T18:33:10.878Z,11.43
2023-04-10T18:35:38.360Z,9.60
2023-04-10T18:38:04.805Z,9.68
2023-04-10T18:40:31.240Z,9.95
2023-04-10T18:42:59.721Z,10.32
2023-04-10T18:45:29.276Z,10.55
2023-04-10T18:47:55.770Z,9.27
2023-04-10T18:50:22.285Z,10.50
2023-04-10T18:52:48.805Z,9.20
2023-04-10T18:55:15.934Z,9.93
2023-04-10T18:57:42.365Z,9.32
2023-04-10T19:00:11.351Z,10.40
2023-04-10T19:02:37.862Z,9.45
2023-04-10T19:05:04.598Z,9.05
2023-04-10T19:07:32.284Z,9.23
2023-04-10T19:09:58.761Z,9.20
2023-04-10T19:12:25.185Z,10.05
2023-04-10T19:14:51.619Z,9.05
2023-04-10T19:17:19.596Z,10.00
2023-04-10T19:19:46.140Z,9.77
2023-04-10T19:22:13.326Z,9.65
2023-04-10T19:24:39.723Z,9.07
2023-04-10T19:27:06.380Z,9.13
2023-04-10T19:29:32.785Z,9.20
2023-04-10T19:31:59.197Z,9.30
2023-04-10T19:34:25.778Z,9.57
2023-04-10T19:36:52.174Z,9.43
2023-04-10T19:39:18.570Z,10.05
2023-04-10T19:41:44.967Z,9.38
2023-04-10T19:44:11.378Z,9.35
2023-04-10T19:46:37.863Z,9.07
2023-04-10T19:49:04.348Z,9.45
2023-04-10T19:51:32.250Z,9.73
2023-04-10T19:53:59.052Z,8.75
2023-04-10T19:56:27.648Z,8.82
2023-04-10T19:58:54.141Z,9.18
2023-04-10T20:01:26.685Z,8.50
2023-04-10T20:03:53.307Z,9.82
2023-04-10T20:06:21.406Z,9.23
2023-04-10T20:08:47.799Z,9.35
2023-04-10T20:11:14.196Z,9.77
2023-04-10T20:13:41.332Z,8.80
2023-04-10T20:16:08.098Z,9.18
2023-04-10T20:18:34.725Z,8.93
2023-04-10T20:21:01.223Z,9.30
2023-04-10T20:23:27.665Z,9.38
2023-04-10T20:25:54.098Z,9.18
2023-04-10T20:28:20.764Z,8.98
2023-04-10T20:30:47.202Z,8.63
2023-04-10T20:33:13.596Z,8.02
2023-04-10T20:35:40.082Z,9.18
2023-04-10T20:38:06.558Z,9.05
2023-04-10T20:40:33.204Z,8.20
2023-04-10T20:42:59.582Z,8.77
2023-04-10T20:45:25.992Z,8.25
2023-04-10T20:47:52.425Z,7.88
2023-04-10T20:50:18.823Z,7.80
2023-04-10T20:52:45.367Z,7.97
2023-04-10T20:55:11.875Z,7.50
2023-04-10T20:57:38.327Z,8.38
2023-04-10T21:00:05.353Z,7.78
2023-04-10T21:02:31.873Z,7.95
2023-04-10T21:04:59.572Z,8.25
2023-04-10T21:07:25.996Z,8.32
2023-04-10T21:09:52.422Z,6.82
2023-04-10T21:12:19.742Z,7.90
2023-04-10T21:14:46.203Z,8.55
2023-04-10T21:17:12.662Z,7.90
2023-04-10T21:19:39.098Z,8.00
2023-04-10T21:22:05.620Z,8.10
2023-04-10T21:24:32.065Z,7.50
2023-04-10T21:26:58.502Z,7.13
2023-04-10T21:29:24.950Z,7.97
2023-04-10T21:31:51.366Z,7.82
2023-04-10T21:34:17.808Z,8.55
2023-04-10T21:36:44.207Z,7.57
2023-04-10T21:39:10.786Z,8.18
2023-04-10T21:41:38.281Z,7.78
2023-04-10T21:44:05.695Z,7.22
2023-04-10T21:46:32.347Z,7.15
2023-04-10T21:48:58.885Z,8.65
2023-04-10T21:51:26.956Z,8.10
2023-04-10T21:53:53.510Z,7.13
2023-04-10T21:56:19.988Z,7.30
2023-04-10T21:58:46.437Z,8.25
2023-04-10T22:01:13.013Z,7.95
2023-04-10T22:03:39.645Z,8.30
2023-04-10T22:06:06.327Z,7.85
2023-04-10T22:08:32.754Z,8.05
2023-04-10T22:10:59.178Z,8.02
2023-04-10T22:13:30.798Z,7.80
2023-04-10T22:15:57.683Z,7.70
2023-04-10T22:18:24.097Z,8.40
2023-04-10T22:20:50.806Z,8.85
2023-04-10T22:23:17.325Z,7.47
2023-04-10T22:25:43.735Z,8.73
2023-04-10T22:28:10.236Z,7.95
2023-04-10T22:30:36.674Z,8.05
2023-04-10T22:33:03.169Z,7.68
2023-04-10T22:35:29.714Z,8.32
2023-04-10T22:37:56.959Z,8.38
2023-04-10T22:40:23.504Z,7.75
2023-04-10T22:42:50.635Z,7.80
2023-04-10T22:45:17.121Z,8.18
2023-04-10T22:47:43.535Z,8.70
2023-04-10T22:50:10.123Z,8.10
2023-04-10T22:52:36.540Z,7.85
2023-04-10T22:55:06.710Z,8.00
2023-04-10T22:57:33.678Z,7.70
2023-04-10T23:00:00.725Z,8.52
2023-04-10T23:02:27.558Z,8.40
2023-04-10T23:04:54.270Z,8.77
2023-04-10T23:07:20.714Z,9.05
2023-04-10T23:09:47.122Z,9.20
2023-04-10T23:12:13.551Z,8.70
2023-04-10T23:14:39.964Z,8.68
2023-04-10T23:17:06.400Z,8.63
2023-04-10T23:19:32.807Z,8.70
2023-04-10T23:21:59.200Z,8.80
2023-04-10T23:24:25.604Z,8.35
2023-04-10T23:26:52.012Z,8.90
2023-04-10T23:29:18.416Z,8.07
2023-04-10T23:31:44.862Z,8.75
2023-04-10T23:34:11.313Z,8.95
2023-04-10T23:36:37.718Z,8.73
2023-04-10T23:39:04.169Z,7.70
2023-04-10T23:41:30.645Z,8.98
2023-04-10T23:43:57.064Z,8.70
2023-04-10T23:46:23.494Z,8.45
2023-04-10T23:48:49.992Z,8.68
2023-04-10T23:51:16.389Z,8.55
2023-04-10T23:53:43.027Z,9.15
2023-04-10T23:56:09.764Z,8.50
2023-04-10T23:58:36.186Z,8.93
